createdAt,value
2023-12-30T00:02:59.530Z,95031.47
2023-12-30T00:08:02.013Z,95031.97
2023-12-30T00:13:04.515Z,95030.06
2023-12-30T00:18:07.013Z,95040.78
2023-12-30T00:23:09.072Z,95036.03
2023-12-30T00:28:11.125Z,95037.31
2023-12-30T00:33:13.293Z,95052.63
2023-12-30T00:38:19.490Z,95048.03
2023-12-30T00:43:25.510Z,95056.09
2023-12-30T00:48:27.756Z,95043.78
2023-12-30T00:53:30.586Z,95042.47
2023-12-30T00:58:35.706Z,95041.09
2023-12-30T01:03:37.714Z,95042.19
2023-12-30T01:08:39.815Z,95043.78
2023-12-30T01:13:42.340Z,95048.34
2023-12-30T01:18:44.456Z,95055.09
2023-12-30T01:23:46.610Z,95073.25
2023-12-30T01:28:48.934Z,95060.94
2023-12-30T01:33:51.082Z,95070.09
2023-12-30T01:38:53.385Z,95072.75
2023-12-30T01:43:55.500Z,95071.69
2023-12-30T01:48:58.144Z,95083.50
2023-12-30T01:54:01.325Z,95080.31
2023-12-30T01:59:04.180Z,95088.84
2023-12-30T02:04:06.191Z,95077.03
2023-12-30T02:09:09.550Z,95076.25
2023-12-30T02:14:28.361Z,95073.84
2023-12-30T02:19:30.573Z,95085.38
2023-12-30T02:24:32.672Z,95086.47
2023-12-30T02:29:34.677Z,95083.00
2023-12-30T02:34:36.795Z,95070.38
2023-12-30T02:39:39.094Z,95091.03
2023-12-30T02:44:41.171Z,95081.09
2023-12-30T02:49:45.526Z,95092.63
2023-12-30T02:54:47.664Z,95087.56
2023-12-30T02:59:49.748Z,95094.22
2023-12-30T03:04:53.319Z,95102.56
2023-12-30T03:09:55.547Z,95092.41
2023-12-30T03:14:57.620Z,95086.75
2023-12-30T03:19:59.645Z,95100.16
2023-12-30T03:25:01.806Z,95094.81
2023-12-30T03:30:04.504Z,95104.44
2023-12-30T03:35:07.857Z,95094.81
2023-12-30T03:40:10.440Z,95101.25
2023-12-30T03:45:12.509Z,95095.41
2023-12-30T03:50:14.790Z,95110.09
2023-12-30T03:55:16.901Z,95109.31
2023-12-30T04:00:19.668Z,95107.41
2023-12-30T04:05:21.908Z,95106.91
2023-12-30T04:10:24.187Z,95105.81
2023-12-30T04:15:26.219Z,95123.50
2023-12-30T04:20:28.649Z,95128.06
2023-12-30T04:25:30.730Z,95131.03
2023-12-30T04:30:32.978Z,95133.72
2023-12-30T04:35:35.267Z,95133.44
2023-12-30T04:40:38.350Z,95139.09
2023-12-30T04:45:40.472Z,95144.44
2023-12-30T04:50:44.194Z,95149.00
2023-12-30T04:55:46.227Z,95166.69
2023-12-30T05:00:48.640Z,95162.13
2023-12-30T05:05:52.627Z,95157.06
2023-12-30T05:10:54.968Z,95160.78
2023-12-30T05:15:57.056Z,95164.56
2023-12-30T05:20:59.047Z,95163.22
2023-12-30T05:26:01.043Z,95155.97
2023-12-30T05:31:03.448Z,95164.28
2023-12-30T05:36:05.802Z,95165.34
2023-12-30T05:41:07.771Z,95168.03
2023-12-30T05:46:15.864Z,95175.81
2023-12-30T05:56:23.871Z,95166.16
2023-12-30T06:01:26.203Z,95165.09
2023-12-30T06:06:29.763Z,95167.53
2023-12-30T06:11:32.612Z,95175.03
2023-12-30T06:16:34.718Z,95191.91
2023-12-30T06:21:36.742Z,95183.06
2023-12-30T06:26:39.935Z,95188.44
2023-12-30T06:31:43.336Z,95197.53
2023-12-30T06:36:46.667Z,95190.28
2023-12-30T06:41:48.978Z,95203.69
2023-12-30T06:46:51.015Z,95202.88
2023-12-30T06:51:55.654Z,95199.41
2023-12-30T06:56:57.862Z,95200.22
2023-12-30T07:01:59.984Z,95206.38
2023-12-30T07:07:02.263Z,95202.88
2023-12-30T07:12:04.714Z,95196.72
2023-12-30T07:17:07.594Z,95205.56
2023-12-30T07:22:09.670Z,95201.81
2023-12-30T07:27:12.669Z,95201.59
2023-12-30T07:32:14.752Z,95226.50
2023-12-30T07:37:16.875Z,95229.44
2023-12-30T07:42:21.300Z,95232.38
2023-12-30T07:47:27.239Z,95234.25
2023-12-30T07:52:29.477Z,95234.56
2023-12-30T07:57:31.528Z,95238.81
2023-12-30T08:02:33.631Z,95243.38
2023-12-30T08:07:35.668Z,95246.06
2023-12-30T08:12:38.519Z,95245.78
2023-12-30T08:17:41.099Z,95248.19
2023-12-30T08:22:43.508Z,95246.31
2023-12-30T08:27:45.572Z,95253.56
2023-12-30T08:32:47.586Z,95252.47
2023-12-30T08:37:51.117Z,95247.13
2023-12-30T08:42:53.142Z,95254.06
2023-12-30T08:47:55.241Z,95269.06
2023-12-30T08:52:57.410Z,95270.66
2023-12-30T08:57:59.637Z,95269.34
2023-12-30T09:03:02.462Z,95272.53
2023-12-30T09:08:05.559Z,95276.03
2023-12-30T09:13:08.154Z,95271.16
2023-12-30T09:18:13.843Z,95276.53
2023-12-30T09:23:17.038Z,95287.75
2023-12-30T09:28:19.197Z,95268.69
2023-12-30T09:33:21.291Z,95287.75
2023-12-30T09:38:26.980Z,95290.16
2023-12-30T09:43:29.897Z,95293.63
2023-12-30T09:48:32.195Z,95285.28
2023-12-30T09:53:34.532Z,95285.28
2023-12-30T09:58:37.010Z,95277.75
2023-12-30T10:03:39.280Z,95272.19
2023-12-30T10:08:44.829Z,95273.97
2023-12-30T10:13:46.918Z,95270.22
2023-12-30T10:18:49.440Z,95273.41
2023-12-30T10:23:52.816Z,95273.41
2023-12-30T10:28:55.191Z,95255.72
2023-12-30T10:33:57.298Z,95251.94
2023-12-30T10:39:01.334Z,95245.19
2023-12-30T10:44:03.451Z,95247.59
2023-12-30T10:49:05.972Z,95254.56
2023-12-30T10:54:09.158Z,95237.66
2023-12-30T10:59:13.763Z,95235.50
2023-12-30T11:04:16.235Z,95235.50
2023-12-30T11:09:20.289Z,95221.00
2023-12-30T11:14:22.746Z,95228.78
2023-12-30T11:19:32.562Z,95225.78
2023-12-30T11:24:35.334Z,95220.72
2023-12-30T11:29:37.647Z,95208.09
2023-12-30T11:34:39.872Z,95209.69
2023-12-30T11:39:42.638Z,95209.41
2023-12-30T11:44:45.005Z,95195.69
2023-12-30T11:49:47.029Z,95188.75
2023-12-30T11:54:49.676Z,95187.66
2023-12-30T11:59:52.312Z,95184.97
2023-12-30T12:04:54.377Z,95191.16
2023-12-30T12:09:57.510Z,95183.63
2023-12-30T12:14:59.634Z,95188.97
2023-12-30T12:20:02.827Z,95182.03
2023-12-30T12:25:05.374Z,95173.19
2023-12-30T12:30:10.179Z,95179.84
2023-12-30T12:35:12.859Z,95171.81
2023-12-30T12:40:15.032Z,95176.38
2023-12-30T12:45:17.348Z,95174.78
2023-12-30T12:50:19.475Z,95183.31
2023-12-30T12:55:21.574Z,95165.63
2023-12-30T13:00:24.181Z,95159.69
2023-12-30T13:05:26.340Z,95154.63
2023-12-30T13:10:34.293Z,95157.00
2023-12-30T13:15:36.686Z,95155.72
2023-12-30T13:20:41.218Z,95158.88
2023-12-30T13:25:45.586Z,95148.16
2023-12-30T13:30:48.277Z,95155.13
2023-12-30T13:35:53.296Z,95147.06
2023-12-30T13:40:59.867Z,95147.38
2023-12-30T13:46:22.046Z,95147.38
2023-12-30T13:51:24.173Z,95146.28
2023-12-30T13:56:26.561Z,95140.09
2023-12-30T14:01:28.765Z,95146.28
2023-12-30T14:06:36.578Z,95141.19
2023-12-30T14:11:47.814Z,95142.00
2023-12-30T14:16:50.359Z,95136.63
2023-12-30T14:21:53.175Z,95141.19
2023-12-30T14:26:56.546Z,95138.53
2023-12-30T14:31:58.798Z,95137.72
2023-12-30T14:37:01.020Z,95125.91
2023-12-30T14:42:03.183Z,95125.09
2023-12-30T14:47:05.415Z,95115.19
2023-12-30T14:52:07.416Z,95115.19
2023-12-30T14:57:09.513Z,95120.53
2023-12-30T15:02:11.829Z,95119.53
2023-12-30T15:07:14.029Z,95124.31
2023-12-30T15:12:16.894Z,95120.03
2023-12-30T15:17:19.473Z,95116.06
2023-12-30T15:22:22.692Z,95109.59
2023-12-30T15:27:24.856Z,95100.47
2023-12-30T15:32:27.175Z,95101.03
2023-12-30T15:37:29.329Z,95101.56
2023-12-30T15:42:31.480Z,95099.97
2023-12-30T15:47:33.604Z,95102.91
2023-12-30T15:52:36.026Z,95098.66
2023-12-30T15:57:38.169Z,95100.53
2023-12-30T16:02:40.350Z,95098.66
2023-12-30T16:07:42.465Z,95100.53
2023-12-30T16:12:44.775Z,95110.47
2023-12-30T16:17:47.618Z,95102.41
2023-12-30T16:22:49.704Z,95103.22
2023-12-30T16:27:51.720Z,95100.81
2023-12-30T16:32:53.871Z,95102.41
2023-12-30T16:37:56.089Z,95099.25
2023-12-30T16:42:58.388Z,95098.16
2023-12-30T16:48:01.328Z,95102.41
2023-12-30T16:53:03.873Z,95104.59
2023-12-30T16:58:06.182Z,95104.59
2023-12-30T17:03:08.283Z,95103.00
2023-12-30T17:08:10.371Z,95099.81
2023-12-30T17:13:12.405Z,95105.16
2023-12-30T17:18:14.484Z,95106.78
2023-12-30T17:23:16.468Z,95109.47
2023-12-30T17:28:18.805Z,95117.78
2023-12-30T17:33:20.940Z,95110.53
2023-12-30T17:38:23.083Z,95110.53
2023-12-30T17:43:25.277Z,95108.94
2023-12-30T17:48:27.343Z,95113.50
2023-12-30T17:53:29.491Z,95105.47
2023-12-30T17:58:31.604Z,95111.63
2023-12-30T18:03:33.644Z,95097.59
2023-12-30T18:08:35.784Z,95104.66
2023-12-30T18:13:38.372Z,95109.53
2023-12-30T18:18:40.485Z,95105.25
2023-12-30T18:23:42.791Z,95094.03
2023-12-30T18:28:45.406Z,95092.16
2023-12-30T18:33:47.715Z,95098.31
2023-12-30T18:38:50.386Z,95095.63
2023-12-30T18:43:52.633Z,95083.31
2023-12-30T18:48:55.348Z,95082.22
2023-12-30T18:53:57.568Z,95078.53
2023-12-30T18:58:59.627Z,95078.53
2023-12-30T19:04:03.203Z,95072.09
2023-12-30T19:09:05.617Z,95066.22
2023-12-30T19:14:07.850Z,95076.66
2023-12-30T19:19:09.966Z,95074.75
2023-12-30T19:24:12.078Z,95083.91
2023-12-30T19:29:14.184Z,95076.66
2023-12-30T19:34:16.409Z,95069.50
2023-12-30T19:39:19.038Z,95069.69
2023-12-30T19:44:21.042Z,95068.91
2023-12-30T19:49:23.132Z,95053.91
2023-12-30T19:54:26.823Z,95050.72
2023-12-30T19:59:30.170Z,95045.06
2023-12-30T20:04:32.266Z,95041.59
2023-12-30T20:09:34.631Z,95033.84
2023-12-30T20:14:37.289Z,95030.38
2023-12-30T20:19:41.164Z,95030.38
2023-12-30T20:24:43.254Z,95026.88
2023-12-30T20:29:45.558Z,95016.97
2023-12-30T20:34:49.621Z,95016.16
2023-12-30T20:39:51.692Z,95004.94
2023-12-30T20:44:53.688Z,95008.41
2023-12-30T20:49:55.809Z,95004.94
2023-12-30T20:54:58.633Z,95005.75
2023-12-30T21:00:00.898Z,95003.34
2023-12-30T21:05:02.985Z,95004.44
2023-12-30T21:10:05.743Z,94997.19
2023-12-30T21:15:08.291Z,94992.94
2023-12-30T21:20:11.352Z,94974.97
2023-12-30T21:25:19.664Z,94970.69
2023-12-30T21:30:28.863Z,94961.06
2023-12-30T21:35:31.072Z,94963.75
2023-12-30T21:40:33.329Z,94959.19
2023-12-30T21:45:35.598Z,94949.53
2023-12-30T21:50:37.639Z,94941.50
2023-12-30T21:55:39.780Z,94934.56
2023-12-30T22:00:41.867Z,94942.59
2023-12-30T22:05:44.814Z,94931.88
2023-12-30T22:10:46.795Z,94926.78
2023-12-30T22:15:48.850Z,94921.41
2023-12-30T22:20:50.868Z,94908.31
2023-12-30T22:25:52.859Z,94910.69
2023-12-30T22:30:55.219Z,94909.41
2023-12-30T22:35:57.346Z,94909.91
2023-12-30T22:40:59.485Z,94903.75
2023-12-30T22:46:02.765Z,94895.72
2023-12-30T22:51:05.058Z,94883.41
2023-12-30T22:56:10.290Z,94870.28
2023-12-30T23:01:13.505Z,94858.00
2023-12-30T23:06:15.652Z,94863.66
2023-12-30T23:11:17.813Z,94850.53
2023-12-30T23:16:19.832Z,94835.44
2023-12-30T23:21:22.889Z,94842.22
2023-12-30T23:26:25.034Z,94829.09
2023-12-30T23:31:27.006Z,94818.38
2023-12-30T23:36:29.007Z,94812.72
2023-12-30T23:41:31.332Z,94799.63
2023-12-30T23:46:34.719Z,94788.91
2023-12-30T23:51:36.690Z,94770.75
2023-12-30T23:56:43.233Z,94769.66
